Time;durP1;ratioP1;P1;durP2;ratioP2;P2;SDS_P1;SDS_P2;PMS_P1;PMS_P2;Temp;Humidity;BMP_temperature;BMP_pressure;BME280_temperature;BME280_humidity;BME280_pressure;Samples;Min_cycle;Max_cycle;Signal;HPM_P1;HPM_P2
2023/12/12 00:00:29;;;;;;;8.65;1.67;;;6.20;99.90;;;;;;6220002;23;20456;-77
2023/12/12 00:02:59;;;;;;;5.05;1.50;;;6.20;99.90;;;;;;6219978;23;20051;-77
2023/12/12 00:05:24;;;;;;;11.63;1.67;;;6.20;99.90;;;;;;6220002;23;20012;-77
2023/12/12 00:07:50;;;;;;;7.05;1.60;;;6.20;99.90;;;;;;6219880;23;20043;-77
2023/12/12 00:10:16;;;;;;;6.32;1.55;;;6.20;99.90;;;;;;6247077;23;20012;-77
2023/12/12 00:12:43;;;;;;;7.28;1.50;;;6.20;99.90;;;;;;6219811;23;20074;-77
2023/12/12 00:15:08;;;;;;;5.85;1.17;;;6.20;99.90;;;;;;6219773;23;20016;-77
2023/12/12 00:17:34;;;;;;;8.77;1.33;;;6.20;99.90;;;;;;6219744;23;20050;-77
2023/12/12 00:20:00;;;;;;;17.80;2.30;;;6.20;99.90;;;;;;6219848;23;20020;-77
2023/12/12 00:22:26;;;;;;;8.85;2.55;;;6.30;99.90;;;;;;6219756;23;20020;-77
2023/12/12 00:24:51;;;;;;;6.45;1.67;;;6.30;99.90;;;;;;6219699;23;20020;-77
2023/12/12 00:27:17;;;;;;;7.88;1.00;;;6.30;99.90;;;;;;6219756;23;20055;-77
2023/12/12 00:29:45;;;;;;;4.95;1.25;;;6.20;99.90;;;;;;6219772;23;20095;-77
2023/12/12 00:32:10;;;;;;;6.40;1.20;;;6.20;99.90;;;;;;6219419;23;20337;-78
2023/12/12 00:34:37;;;;;;;6.55;1.48;;;6.20;99.90;;;;;;6219629;23;20433;-77
2023/12/12 00:37:03;;;;;;;6.10;1.30;;;6.20;99.90;;;;;;6219745;23;20066;-77
2023/12/12 00:39:29;;;;;;;7.15;1.20;;;6.20;99.90;;;;;;6219709;23;20047;-77
2023/12/12 00:41:54;;;;;;;6.97;1.20;;;6.20;99.90;;;;;;6247177;23;20023;-78
2023/12/12 00:44:21;;;;;;;6.60;1.20;;;6.10;99.90;;;;;;6219097;23;20466;-77
2023/12/12 00:46:47;;;;;;;5.00;1.25;;;6.20;99.90;;;;;;6219600;23;20027;-77
2023/12/12 00:49:12;;;;;;;6.07;1.10;;;6.10;99.90;;;;;;6219534;23;20012;-77
2023/12/12 00:51:38;;;;;;;5.45;1.20;;;6.20;99.90;;;;;;6246288;23;20023;-77
2023/12/12 00:54:04;;;;;;;5.55;1.10;;;6.20;99.90;;;;;;6246504;23;20440;-77
2023/12/12 00:56:30;;;;;;;9.65;1.25;;;6.20;99.90;;;;;;6219907;23;20012;-77
2023/12/12 00:58:55;;;;;;;4.70;1.10;;;6.10;99.90;;;;;;6219760;23;20348;-77
2023/12/12 01:01:21;;;;;;;7.93;1.35;;;6.10;99.90;;;;;;6219519;23;20034;-77
2023/12/12 01:03:47;;;;;;;6.82;1.08;;;6.10;99.90;;;;;;6246626;23;20397;-77
2023/12/12 01:06:24;;;;;;;4.82;1.10;;;6.10;99.90;;;;;;6219462;23;20313;-77
2023/12/12 01:08:50;;;;;;;4.97;0.90;;;6.10;99.90;;;;;;6246676;23;20024;-77
2023/12/12 01:11:20;;;;;;;4.00;0.65;;;6.00;99.90;;;;;;6246377;23;20475;-77
2023/12/12 01:13:46;;;;;;;9.07;1.58;;;6.00;99.90;;;;;;6219318;23;20095;-78
2023/12/12 01:16:12;;;;;;;7.80;1.40;;;6.00;99.90;;;;;;6219291;23;20344;-77
2023/12/12 01:18:38;;;;;;;4.60;0.80;;;6.00;99.90;;;;;;6219391;23;20107;-77
2023/12/12 01:21:04;;;;;;;9.65;1.95;;;6.00;99.90;;;;;;6219347;23;20022;-77
2023/12/12 01:23:53;;;;;;;9.23;1.20;;;6.00;99.90;;;;;;6219377;23;20016;-77
2023/12/12 01:26:21;;;;;;;13.27;1.30;;;5.90;99.90;;;;;;6219368;23;20059;-77
2023/12/12 01:28:47;;;;;;;3.53;0.73;;;5.90;99.90;;;;;;6219432;23;20047;-78
2023/12/12 01:31:16;;;;;;;5.95;2.03;;;5.80;99.90;;;;;;6221151;23;20020;-77
2023/12/12 01:33:42;;;;;;;4.18;1.30;;;5.80;99.90;;;;;;6221154;23;20325;-77
2023/12/12 01:36:11;;;;;;;6.28;1.05;;;5.80;99.90;;;;;;6221219;23;20455;-77
2023/12/12 01:38:37;;;;;;;6.90;1.05;;;5.70;99.90;;;;;;6221113;23;20463;-77
2023/12/12 01:41:03;;;;;;;5.95;1.30;;;5.70;99.90;;;;;;6247959;23;20020;-77
2023/12/12 01:43:31;;;;;;;6.40;1.10;;;5.70;99.90;;;;;;6226042;23;20016;-77
2023/12/12 01:46:01;;;;;;;5.43;0.90;;;5.60;99.90;;;;;;6246430;23;20103;-77
2023/12/12 01:48:31;;;;;;;3.72;1.23;;;5.60;99.90;;;;;;6246589;23;20012;-77
2023/12/12 01:50:57;;;;;;;6.97;1.40;;;5.50;99.90;;;;;;6246488;23;20075;-77
2023/12/12 01:53:29;;;;;;;6.05;1.30;;;5.40;99.90;;;;;;6246246;23;20345;-78
2023/12/12 01:55:57;;;;;;;6.00;1.38;;;5.40;99.90;;;;;;6247923;23;20083;-77
2023/12/12 01:58:25;;;;;;;6.90;1.48;;;5.30;99.90;;;;;;6246328;23;20024;-77
2023/12/12 02:00:52;;;;;;;7.97;1.65;;;5.30;99.90;;;;;;6246353;23;20012;-77
2023/12/12 02:03:18;;;;;;;10.68;2.55;;;5.20;99.90;;;;;;6246258;23;20016;-77
2023/12/12 02:05:45;;;;;;;5.40;1.60;;;5.20;99.90;;;;;;6247970;22;20095;-77
2023/12/12 02:08:11;;;;;;;7.88;1.10;;;5.20;99.90;;;;;;6246398;23;20016;-77
2023/12/12 02:10:37;;;;;;;8.02;1.73;;;5.20;99.90;;;;;;6246785;23;20024;-77
2023/12/12 02:13:03;;;;;;;5.88;1.52;;;5.10;99.90;;;;;;6246233;23;20023;-77
2023/12/12 02:15:29;;;;;;;5.82;1.38;;;5.10;99.90;;;;;;6246317;23;20024;-77
2023/12/12 02:17:54;;;;;;;8.93;1.40;;;5.00;99.90;;;;;;6247818;23;20031;-77
2023/12/12 02:20:20;;;;;;;4.32;1.17;;;5.00;99.90;;;;;;6246294;23;20100;-77
2023/12/12 02:22:45;;;;;;;9.02;2.17;;;5.00;99.90;;;;;;6246068;23;20024;-77
2023/12/12 02:25:11;;;;;;;8.15;1.50;;;4.90;99.90;;;;;;6246081;23;20020;-77
2023/12/12 02:27:37;;;;;;;8.80;1.95;;;4.80;99.90;;;;;;6246060;22;20023;-77
2023/12/12 02:30:06;;;;;;;8.15;1.83;;;4.80;99.90;;;;;;6246155;23;20051;-78
2023/12/12 02:32:31;;;;;;;5.85;1.40;;;4.70;99.90;;;;;;6246019;23;20016;-77
2023/12/12 02:34:57;;;;;;;3.92;1.60;;;4.70;99.90;;;;;;6246159;23;20053;-77
2023/12/12 02:37:22;;;;;;;7.10;1.60;;;4.60;99.90;;;;;;6246377;23;20067;-77
2023/12/12 02:39:48;;;;;;;6.25;1.67;;;4.60;99.90;;;;;;6245890;23;20020;-78
2023/12/12 02:42:14;;;;;;;6.45;1.40;;;4.60;99.90;;;;;;6247763;23;20027;-77
2023/12/12 02:44:43;;;;;;;9.90;1.90;;;4.60;99.90;;;;;;6245758;23;20043;-78
2023/12/12 02:47:08;;;;;;;7.10;1.58;;;4.60;99.90;;;;;;6245950;23;20024;-77
2023/12/12 02:49:34;;;;;;;5.57;1.50;;;4.60;99.90;;;;;;6245831;23;20019;-77
2023/12/12 02:52:00;;;;;;;5.88;2.00;;;4.60;99.90;;;;;;6247442;23;20016;-77
2023/12/12 02:54:25;;;;;;;13.15;3.22;;;4.70;99.90;;;;;;6247243;23;20024;-77
2023/12/12 02:56:51;;;;;;;7.25;1.70;;;4.70;99.90;;;;;;6245896;23;20500;-77
2023/12/12 02:59:16;;;;;;;6.20;2.10;;;4.80;99.90;;;;;;6245925;23;20012;-77
2023/12/12 03:01:42;;;;;;;6.20;2.05;;;4.80;99.90;;;;;;6245809;23;20020;-77
2023/12/12 03:04:08;;;;;;;5.28;1.85;;;4.80;99.90;;;;;;6245734;23;20458;-77
2023/12/12 03:06:33;;;;;;;4.88;1.80;;;4.80;99.90;;;;;;6245685;23;20023;-77
2023/12/12 03:08:59;;;;;;;6.03;2.20;;;4.90;99.90;;;;;;6245761;23;20107;-77
2023/12/12 03:11:24;;;;;;;8.00;2.13;;;4.90;99.90;;;;;;6245677;23;20395;-77
2023/12/12 03:13:50;;;;;;;6.65;1.80;;;4.90;99.90;;;;;;6245618;23;20016;-77
2023/12/12 03:16:16;;;;;;;5.75;1.95;;;5.00;99.90;;;;;;6245549;23;20371;-77
2023/12/12 03:18:41;;;;;;;6.35;2.03;;;5.00;99.90;;;;;;6245959;23;20373;-77
2023/12/12 03:21:07;;;;;;;6.07;1.60;;;5.00;99.90;;;;;;6245606;23;20012;-77
2023/12/12 03:23:32;;;;;;;9.00;2.50;;;5.00;99.90;;;;;;6245559;23;20463;-77
2023/12/12 03:26:07;;;;;;;8.82;2.03;;;5.00;99.90;;;;;;6245508;23;20063;-77
2023/12/12 03:28:34;;;;;;;8.88;2.67;;;5.10;99.90;;;;;;6245680;23;20016;-77
2023/12/12 03:30:59;;;;;;;6.43;1.77;;;5.10;99.90;;;;;;6245495;23;20012;-77
2023/12/12 03:33:25;;;;;;;10.75;2.42;;;5.10;99.90;;;;;;6245470;23;20046;-77
2023/12/12 03:35:53;;;;;;;9.35;2.03;;;5.10;99.90;;;;;;6245502;23;20336;-77
2023/12/12 03:38:19;;;;;;;8.98;2.40;;;5.10;99.90;;;;;;6245422;23;20374;-77
2023/12/12 03:40:47;;;;;;;8.77;2.35;;;5.10;99.90;;;;;;6245460;23;20436;-77
2023/12/12 03:43:14;;;;;;;6.35;2.15;;;5.20;99.90;;;;;;6245125;23;20063;-77
2023/12/12 03:45:43;;;;;;;6.85;3.05;;;5.20;99.90;;;;;;6246757;22;20344;-77
2023/12/12 03:48:09;;;;;;;5.50;2.00;;;5.20;99.90;;;;;;6245308;23;20004;-77
2023/12/12 03:50:35;;;;;;;6.40;2.15;;;5.20;99.90;;;;;;6245286;23;20016;-77
2023/12/12 03:53:01;;;;;;;7.25;2.30;;;5.20;99.90;;;;;;6244885;23;20020;-77
2023/12/12 03:55:30;;;;;;;7.75;2.35;;;5.20;99.90;;;;;;6245258;23;20016;-77
2023/12/12 03:57:55;;;;;;;8.68;2.13;;;5.20;99.90;;;;;;6245267;23;20023;-77
2023/12/12 04:00:21;;;;;;;6.47;2.20;;;5.20;99.90;;;;;;6245176;23;20020;-77
2023/12/12 04:02:46;;;;;;;7.00;2.65;;;5.20;99.90;;;;;;6247058;23;20433;-77
2023/12/12 04:05:12;;;;;;;6.60;2.20;;;5.20;99.90;;;;;;6244885;23;20095;-77
2023/12/12 04:07:38;;;;;;;5.72;1.92;;;5.20;99.90;;;;;;6245197;23;20388;-77
2023/12/12 04:10:06;;;;;;;5.05;2.08;;;5.20;99.90;;;;;;6247053;22;20066;-77
2023/12/12 04:12:33;;;;;;;6.85;2.17;;;5.20;99.90;;;;;;6245130;23;20016;-77
2023/12/12 04:14:59;;;;;;;7.60;2.47;;;5.20;99.90;;;;;;6245080;23;20030;-77
2023/12/12 04:17:24;;;;;;;7.45;2.28;;;5.30;99.90;;;;;;6246568;23;20044;-77
2023/12/12 04:19:50;;;;;;;6.15;2.50;;;5.30;99.90;;;;;;6245110;23;20070;-77
2023/12/12 04:22:16;;;;;;;7.53;2.38;;;5.20;99.90;;;;;;6244868;23;20027;-77
2023/12/12 04:24:41;;;;;;;10.45;2.78;;;5.20;99.90;;;;;;6246649;23;20343;-77
2023/12/12 04:27:07;;;;;;;11.90;2.70;;;5.20;99.90;;;;;;6245104;23;20036;-77
2023/12/12 04:29:32;;;;;;;11.32;2.45;;;5.20;99.90;;;;;;6246873;23;20016;-77
2023/12/12 04:31:58;;;;;;;11.10;2.80;;;5.10;99.90;;;;;;6246794;23;20027;-77
2023/12/12 04:34:24;;;;;;;7.00;2.53;;;5.10;99.90;;;;;;6244939;23;20125;-77
2023/12/12 04:36:49;;;;;;;5.10;2.10;;;5.10;99.90;;;;;;6244974;23;20012;-77
2023/12/12 04:39:17;;;;;;;10.32;2.22;;;5.10;99.90;;;;;;6244924;23;20023;-77
2023/12/12 04:41:43;;;;;;;5.45;2.25;;;5.10;99.90;;;;;;6246754;22;20020;-77
2023/12/12 04:44:11;;;;;;;9.13;2.40;;;5.10;99.90;;;;;;6244560;23;20042;-78
2023/12/12 04:46:37;;;;;;;8.20;2.45;;;5.00;99.90;;;;;;6244758;23;20016;-77
2023/12/12 04:49:03;;;;;;;8.20;2.40;;;5.00;99.90;;;;;;6246660;23;20035;-77
2023/12/12 04:51:29;;;;;;;4.72;1.98;;;5.00;99.90;;;;;;6244772;23;20090;-77
2023/12/12 04:53:55;;;;;;;9.60;3.08;;;5.00;99.90;;;;;;6244678;23;20347;-77
2023/12/12 04:56:20;;;;;;;7.53;3.58;;;5.00;99.90;;;;;;6246755;22;20471;-77
2023/12/12 04:58:46;;;;;;;4.93;2.20;;;5.10;99.90;;;;;;6244832;23;20024;-78
2023/12/12 05:01:15;;;;;;;7.50;2.92;;;5.10;99.90;;;;;;6244725;23;20094;-77
2023/12/12 05:03:40;;;;;;;6.13;2.67;;;5.10;99.90;;;;;;6246709;22;20012;-77
2023/12/12 05:06:08;;;;;;;5.68;2.63;;;5.10;99.90;;;;;;6246603;23;20313;-77
2023/12/12 05:08:34;;;;;;;6.80;2.90;;;5.10;99.90;;;;;;6246792;23;20020;-77
2023/12/12 05:11:00;;;;;;;8.40;2.95;;;5.10;99.90;;;;;;6246792;23;20039;-77
2023/12/12 05:13:25;;;;;;;7.47;2.30;;;5.00;99.90;;;;;;6246388;23;20070;-77
2023/12/12 05:15:54;;;;;;;5.90;2.53;;;5.10;99.90;;;;;;6246858;23;20059;-77
2023/12/12 05:18:19;;;;;;;7.20;2.70;;;5.10;99.90;;;;;;6246663;23;20051;-77
2023/12/12 05:20:45;;;;;;;8.63;3.17;;;5.10;99.90;;;;;;6246626;23;20344;-77
2023/12/12 05:23:11;;;;;;;12.65;2.75;;;5.00;99.90;;;;;;6246742;23;20012;-77
2023/12/12 05:25:37;;;;;;;9.18;3.00;;;5.00;99.90;;;;;;6246509;23;20020;-77
2023/12/12 05:28:03;;;;;;;9.38;3.35;;;5.00;99.90;;;;;;6246775;23;20012;-77
2023/12/12 05:30:28;;;;;;;8.88;2.78;;;5.00;99.90;;;;;;6246657;23;20020;-77
2023/12/12 05:32:54;;;;;;;10.45;2.72;;;5.00;99.90;;;;;;6246432;23;20028;-77
2023/12/12 05:35:20;;;;;;;7.72;2.88;;;5.00;99.90;;;;;;6248107;23;20096;-77
2023/12/12 05:37:45;;;;;;;6.53;3.00;;;5.00;99.90;;;;;;6246645;23;20108;-77
2023/12/12 05:40:14;;;;;;;7.00;3.22;;;5.00;99.90;;;;;;6246704;23;20020;-77
2023/12/12 05:42:41;;;;;;;7.78;2.80;;;5.00;99.90;;;;;;6248444;23;20016;-77
2023/12/12 05:45:08;;;;;;;7.75;3.20;;;5.00;99.90;;;;;;6246604;23;20028;-77
2023/12/12 05:47:34;;;;;;;8.38;3.50;;;5.00;99.90;;;;;;6246498;23;20024;-77
2023/12/12 05:50:00;;;;;;;7.07;3.35;;;4.90;99.90;;;;;;6246510;23;20082;-77
2023/12/12 05:52:25;;;;;;;8.40;3.28;;;4.90;99.90;;;;;;6246311;23;20454;-77
2023/12/12 05:54:52;;;;;;;8.05;3.40;;;4.90;99.90;;;;;;6246455;23;20020;-77
2023/12/12 05:57:18;;;;;;;7.65;3.65;;;5.00;99.90;;;;;;6246358;23;20091;-77
2023/12/12 05:59:43;;;;;;;7.72;2.85;;;5.00;99.90;;;;;;6246286;23;20448;-77
2023/12/12 06:02:09;;;;;;;13.95;4.22;;;5.00;99.90;;;;;;6246249;23;20023;-77
2023/12/12 06:04:35;;;;;;;10.30;4.15;;;5.00;99.90;;;;;;6246429;23;20008;-77
2023/12/12 06:07:02;;;;;;;11.80;5.20;;;4.90;99.90;;;;;;6246221;23;20073;-77
2023/12/12 06:09:28;;;;;;;12.60;5.07;;;5.00;99.90;;;;;;6246308;23;20016;-77
2023/12/12 06:11:54;;;;;;;11.27;3.83;;;4.90;99.90;;;;;;6246279;23;20022;-77
2023/12/12 06:14:19;;;;;;;11.35;4.15;;;4.90;99.90;;;;;;6246167;23;20047;-77
2023/12/12 06:16:45;;;;;;;11.50;4.07;;;5.00;99.90;;;;;;6245981;23;20030;-77
2023/12/12 06:19:11;;;;;;;7.82;3.75;;;4.90;99.90;;;;;;6245736;23;20023;-77
2023/12/12 06:21:36;;;;;;;11.15;4.60;;;4.90;99.90;;;;;;6247991;23;20008;-77
2023/12/12 06:24:03;;;;;;;11.73;4.65;;;4.90;99.90;;;;;;6246194;23;20020;-77
2023/12/12 06:26:32;;;;;;;9.07;4.03;;;4.80;99.90;;;;;;6246226;23;20032;-77
2023/12/12 06:29:02;;;;;;;11.80;4.47;;;4.80;99.90;;;;;;6246233;23;20012;-77
2023/12/12 06:31:27;;;;;;;10.05;4.53;;;4.80;99.90;;;;;;6247984;22;20067;-77
2023/12/12 06:33:53;;;;;;;12.30;4.38;;;4.70;99.90;;;;;;6245993;23;20028;-77
2023/12/12 06:36:18;;;;;;;12.25;4.25;;;4.70;99.90;;;;;;6246003;23;20321;-77
2023/12/12 06:38:44;;;;;;;7.28;3.97;;;4.70;99.90;;;;;;6245967;23;20066;-77
2023/12/12 06:41:10;;;;;;;13.48;5.43;;;4.60;99.90;;;;;;6245838;23;20025;-77
2023/12/12 06:43:37;;;;;;;17.13;5.00;;;4.60;99.90;;;;;;6247542;23;20524;-78
2023/12/12 06:46:03;;;;;;;13.23;5.22;;;4.60;99.90;;;;;;6245954;23;20020;-77
2023/12/12 06:48:28;;;;;;;13.38;6.28;;;4.50;99.90;;;;;;6247795;22;20099;-77
2023/12/12 06:50:54;;;;;;;14.70;4.93;;;4.50;99.90;;;;;;6245994;23;20405;-77
2023/12/12 06:53:20;;;;;;;11.10;5.50;;;4.40;99.90;;;;;;6245833;23;20028;-77
2023/12/12 06:55:47;;;;;;;15.82;5.65;;;4.40;99.90;;;;;;6245929;23;20399;-77
2023/12/12 06:58:16;;;;;;;12.27;5.10;;;4.40;99.90;;;;;;6247730;22;20015;-77
2023/12/12 07:00:42;;;;;;;14.77;5.90;;;4.40;99.90;;;;;;6247323;22;20390;-77
2023/12/12 07:03:09;;;;;;;11.90;5.18;;;4.40;99.90;;;;;;6245850;23;20020;-77
2023/12/12 07:05:36;;;;;;;11.18;5.85;;;4.30;99.90;;;;;;6245798;23;20048;-77
2023/12/12 07:08:03;;;;;;;11.15;5.32;;;4.30;99.90;;;;;;6247638;22;20059;-77
2023/12/12 07:10:29;;;;;;;11.27;5.28;;;4.30;99.90;;;;;;6247677;22;20039;-78
2023/12/12 07:12:55;;;;;;;12.43;6.10;;;4.40;99.90;;;;;;6245643;23;20059;-77
2023/12/12 07:15:21;;;;;;;13.20;6.40;;;4.40;99.90;;;;;;6245740;23;20016;-77
2023/12/12 07:17:47;;;;;;;13.50;6.20;;;4.40;99.90;;;;;;6245741;23;20079;-77
2023/12/12 07:20:12;;;;;;;33.60;7.43;;;4.40;99.90;;;;;;6246064;23;20039;-77
2023/12/12 07:22:38;;;;;;;19.88;7.32;;;4.40;99.90;;;;;;6245554;23;20012;-77
2023/12/12 07:25:05;;;;;;;14.18;6.97;;;4.50;99.90;;;;;;6245603;23;20563;-77
2023/12/12 07:27:31;;;;;;;15.02;7.18;;;4.50;99.90;;;;;;6245095;23;20012;-77
2023/12/12 07:29:57;;;;;;;19.48;7.53;;;4.50;99.90;;;;;;6245456;23;20020;-77
2023/12/12 07:32:24;;;;;;;20.45;7.50;;;4.50;99.90;;;;;;6244980;23;20077;-77
2023/12/12 07:34:49;;;;;;;18.73;7.97;;;4.50;99.90;;;;;;6244174;23;20027;-78
2023/12/12 07:37:15;;;;;;;21.65;7.95;;;4.50;99.90;;;;;;6245230;23;20017;-78
2023/12/12 07:39:40;;;;;;;18.80;8.02;;;4.50;99.90;;;;;;6245388;23;20027;-78
2023/12/12 07:42:06;;;;;;;21.58;7.15;;;4.50;99.90;;;;;;6247020;23;20043;-78
2023/12/12 07:44:32;;;;;;;16.27;7.40;;;4.50;99.90;;;;;;6245084;23;20020;-78
2023/12/12 07:47:01;;;;;;;17.85;9.55;;;4.50;99.90;;;;;;6245382;23;20078;-78
2023/12/12 07:49:29;;;;;;;17.17;7.93;;;4.40;99.90;;;;;;6247141;22;20013;-78
2023/12/12 07:51:55;;;;;;;26.65;9.57;;;4.50;99.90;;;;;;6247102;22;20020;-78
2023/12/12 07:54:21;;;;;;;19.70;9.63;;;4.50;99.90;;;;;;6245134;23;20012;-78
2023/12/12 07:56:46;;;;;;;29.25;14.30;;;4.40;99.90;;;;;;6245214;23;20020;-77
2023/12/12 07:59:12;;;;;;;30.60;13.55;;;4.50;99.90;;;;;;6247004;23;20016;-78
2023/12/12 08:01:39;;;;;;;22.00;13.52;;;4.50;99.90;;;;;;6245055;23;20341;-77
2023/12/12 08:04:05;;;;;;;30.65;16.08;;;4.60;99.90;;;;;;6245013;23;20016;-79
2023/12/12 08:06:32;;;;;;;47.25;19.42;;;4.60;99.90;;;;;;6245039;23;20023;-78
2023/12/12 08:08:59;;;;;;;37.75;15.23;;;4.60;99.90;;;;;;6243979;23;20016;-78
2023/12/12 08:11:27;;;;;;;32.30;14.65;;;4.70;99.90;;;;;;6244913;23;20016;-78
2023/12/12 08:13:54;;;;;;;28.25;14.48;;;4.70;99.90;;;;;;6244634;23;20020;-78
2023/12/12 08:16:20;;;;;;;31.80;15.23;;;4.80;99.90;;;;;;6244778;23;20020;-79
2023/12/12 08:18:45;;;;;;;37.88;16.00;;;4.80;99.90;;;;;;6243703;23;20012;-77
2023/12/12 08:21:11;;;;;;;33.95;13.82;;;4.80;99.90;;;;;;6244662;23;20016;-78
2023/12/12 08:23:37;;;;;;;32.40;14.20;;;4.80;99.90;;;;;;6244674;23;20016;-78
2023/12/12 08:26:05;;;;;;;33.28;14.95;;;4.80;99.90;;;;;;6244744;23;20501;-78
2023/12/12 08:28:31;;;;;;;27.95;13.65;;;4.80;99.90;;;;;;6244828;23;20020;-78
2023/12/12 08:30:57;;;;;;;36.60;14.95;;;4.90;99.90;;;;;;6244738;23;20318;-78
2023/12/12 08:33:23;;;;;;;29.20;13.05;;;4.80;99.90;;;;;;6244388;23;20052;-78
2023/12/12 08:35:49;;;;;;;25.38;11.77;;;4.80;99.90;;;;;;6244665;23;20462;-78
2023/12/12 08:38:15;;;;;;;32.88;12.07;;;4.80;99.90;;;;;;6244384;23;20479;-78
2023/12/12 08:40:41;;;;;;;30.98;13.45;;;4.80;99.90;;;;;;6244578;23;20031;-78
2023/12/12 08:43:07;;;;;;;35.08;12.60;;;4.90;99.90;;;;;;6244403;23;20345;-78
2023/12/12 08:45:35;;;;;;;39.17;17.15;;;4.90;99.90;;;;;;6244528;23;20028;-78
2023/12/12 08:48:01;;;;;;;37.72;17.50;;;4.90;99.90;;;;;;6244450;23;20087;-79
2023/12/12 08:50:26;;;;;;;41.65;17.40;;;4.90;99.90;;;;;;6244199;23;20055;-80
2023/12/12 08:52:52;;;;;;;44.50;19.35;;;4.90;99.90;;;;;;6244705;23;20055;-79
2023/12/12 08:55:18;;;;;;;34.72;14.40;;;5.00;99.90;;;;;;6244895;23;20024;-80
2023/12/12 08:57:45;;;;;;;33.97;14.13;;;5.00;99.90;;;;;;6246027;22;20012;-79
2023/12/12 09:00:12;;;;;;;33.53;16.13;;;5.00;99.90;;;;;;6244475;23;20016;-78
2023/12/12 09:02:41;;;;;;;33.17;14.40;;;5.10;99.90;;;;;;6243915;23;20016;-79
2023/12/12 09:05:07;;;;;;;33.22;14.43;;;5.00;99.90;;;;;;6246274;23;20009;-78
2023/12/12 09:07:34;;;;;;;34.78;15.20;;;5.10;99.90;;;;;;6244541;23;20038;-78
2023/12/12 09:10:02;;;;;;;43.33;17.88;;;5.10;99.90;;;;;;6244125;23;20340;-79
2023/12/12 09:12:27;;;;;;;45.20;17.88;;;5.20;99.90;;;;;;6244297;23;20016;-79
2023/12/12 09:14:53;;;;;;;45.28;17.27;;;5.20;99.90;;;;;;6243952;23;20117;-79
2023/12/12 09:17:18;;;;;;;35.30;14.90;;;5.30;99.90;;;;;;6244178;23;20030;-80
2023/12/12 09:19:44;;;;;;;32.30;15.13;;;5.40;99.90;;;;;;6244052;23;20348;-81
2023/12/12 09:22:09;;;;;;;37.95;17.40;;;5.40;99.90;;;;;;6244430;23;20023;-80
2023/12/12 09:24:35;;;;;;;30.92;16.88;;;5.50;99.90;;;;;;6244398;23;20070;-81
2023/12/12 09:27:01;;;;;;;36.30;16.52;;;5.40;99.90;;;;;;6244317;23;20013;-80
2023/12/12 09:29:26;;;;;;;26.60;14.20;;;5.50;99.90;;;;;;6244134;23;20020;-80
2023/12/12 09:31:52;;;;;;;34.03;14.98;;;5.50;99.90;;;;;;6244235;23;20694;-81
2023/12/12 09:34:18;;;;;;;35.17;15.15;;;5.50;99.90;;;;;;6244273;23;20016;-80
2023/12/12 09:36:43;;;;;;;52.15;17.42;;;5.40;99.90;;;;;;6244255;23;20401;-80
2023/12/12 09:39:10;;;;;;;58.65;16.30;;;5.40;99.90;;;;;;6244026;23;20062;-80
2023/12/12 09:41:36;;;;;;;59.13;17.50;;;5.50;99.90;;;;;;6244228;23;20016;-80
2023/12/12 09:44:06;;;;;;;68.72;16.58;;;5.50;99.90;;;;;;6245487;22;20525;-81
2023/12/12 09:46:32;;;;;;;70.15;17.92;;;5.50;99.90;;;;;;6244103;23;20024;-81
2023/12/12 09:49:01;;;;;;;255.48;26.95;;;5.50;99.90;;;;;;6244205;23;20012;-81
2023/12/12 09:51:27;;;;;;;138.40;22.58;;;5.40;99.90;;;;;;6245498;23;20436;-80
2023/12/12 09:53:54;;;;;;;177.10;23.58;;;5.50;99.90;;;;;;6246049;23;20019;-80
2023/12/12 09:56:20;;;;;;;85.43;17.48;;;5.50;99.90;;;;;;6246215;23;20048;-80
2023/12/12 09:58:49;;;;;;;256.33;26.42;;;5.50;99.90;;;;;;6246015;23;20016;-80
2023/12/12 10:01:16;;;;;;;155.75;21.88;;;5.50;99.90;;;;;;6246162;23;20047;-80
2023/12/12 10:03:41;;;;;;;200.60;23.38;;;5.50;99.90;;;;;;6247630;22;20024;-80
2023/12/12 10:06:12;;;;;;;167.40;21.33;;;5.50;99.90;;;;;;6245794;23;20012;-80
2023/12/12 10:08:39;;;;;;;63.45;16.67;;;5.50;99.90;;;;;;6246099;23;20356;-81
2023/12/12 10:11:09;;;;;;;190.20;25.08;;;5.50;99.90;;;;;;6246053;23;20012;-80
2023/12/12 10:13:54;;;;;;;112.82;19.67;;;5.50;99.90;;;;;;6247312;22;20099;-80
2023/12/12 10:16:20;;;;;;;119.63;22.38;;;5.50;99.90;;;;;;6246020;23;20024;-80
2023/12/12 10:18:50;;;;;;;100.13;21.50;;;5.50;99.90;;;;;;6245584;23;20047;-81
2023/12/12 10:21:17;;;;;;;153.90;25.90;;;5.40;99.90;;;;;;6245958;23;20023;-80
2023/12/12 10:23:48;;;;;;;100.18;21.23;;;5.50;99.90;;;;;;6245832;23;20008;-80
2023/12/12 10:26:15;;;;;;;142.70;21.58;;;5.50;99.90;;;;;;6245743;23;20086;-81
2023/12/12 10:28:41;;;;;;;64.28;19.70;;;5.50;99.90;;;;;;6245779;23;20023;-81
2023/12/12 10:31:08;;;;;;;132.52;21.77;;;5.50;99.90;;;;;;6245756;23;20091;-80
2023/12/12 10:33:38;;;;;;;156.02;25.00;;;5.50;99.90;;;;;;6245689;23;20095;-81
2023/12/12 10:36:08;;;;;;;121.25;19.65;;;5.60;99.90;;;;;;6245819;23;20016;-81
2023/12/12 10:38:35;;;;;;;108.00;18.35;;;5.60;99.90;;;;;;6245429;23;20070;-80
2023/12/12 10:41:20;;;;;;;89.05;17.65;;;5.60;99.90;;;;;;6245709;23;20035;-80
2023/12/12 10:43:48;;;;;;;149.70;19.73;;;5.60;99.90;;;;;;6245477;23;20078;-80
2023/12/12 10:46:16;;;;;;;118.28;19.00;;;5.50;99.90;;;;;;6245625;23;20027;-80
2023/12/12 10:48:44;;;;;;;123.10;18.73;;;5.50;99.90;;;;;;6245620;23;20027;-80
2023/12/12 10:51:12;;;;;;;54.05;15.70;;;5.50;99.90;;;;;;6245364;23;20027;-81
2023/12/12 10:53:43;;;;;;;50.20;15.00;;;5.50;99.90;;;;;;6245409;23;20016;-80
2023/12/12 10:56:14;;;;;;;47.03;14.52;;;5.50;99.90;;;;;;6245719;23;20095;-80
2023/12/12 10:58:41;;;;;;;55.60;14.50;;;5.50;99.90;;;;;;6245155;23;20024;-80
2023/12/12 11:01:13;;;;;;;44.67;14.73;;;5.50;99.90;;;;;;6245489;23;20095;-80
2023/12/12 11:03:40;;;;;;;71.40;16.65;;;5.50;99.90;;;;;;6244857;23;20012;-80
2023/12/12 11:06:07;;;;;;;58.28;15.52;;;5.50;99.90;;;;;;6246973;22;20023;-80
2023/12/12 11:08:33;;;;;;;43.10;14.80;;;5.50;99.90;;;;;;6245308;23;20115;-79
2023/12/12 11:11:08;;;;;;;44.25;15.05;;;5.40;99.90;;;;;;6245290;23;20353;-80
2023/12/12 11:13:36;;;;;;;35.80;14.65;;;5.40;99.90;;;;;;6245374;23;20095;-80
2023/12/12 11:16:03;;;;;;;55.30;14.77;;;5.40;99.90;;;;;;6245134;23;20452;-79
2023/12/12 11:18:30;;;;;;;45.75;14.80;;;5.50;99.90;;;;;;6245396;23;20028;-79
2023/12/12 11:20:55;;;;;;;37.80;14.10;;;5.50;99.90;;;;;;6245292;23;20016;-79
2023/12/12 11:23:53;;;;;;;33.20;14.10;;;5.40;99.90;;;;;;6245354;23;20031;-79
2023/12/12 11:26:20;;;;;;;54.92;12.75;;;5.50;99.90;;;;;;6245308;23;20012;-79
2023/12/12 11:28:48;;;;;;;29.77;13.10;;;5.30;99.90;;;;;;6246956;22;20051;-78
2023/12/12 11:31:34;;;;;;;44.50;13.82;;;5.40;99.90;;;;;;6244990;23;20052;-79
2023/12/12 11:34:20;;;;;;;33.72;12.40;;;5.30;99.90;;;;;;6245015;23;20399;-79
2023/12/12 11:37:00;;;;;;;30.20;13.48;;;5.20;99.90;;;;;;6245014;23;20020;-79
2023/12/12 11:39:50;;;;;;;59.75;15.50;;;5.30;99.90;;;;;;6245013;23;20083;-80
2023/12/12 11:42:24;;;;;;;57.53;16.67;;;5.30;99.90;;;;;;6244955;23;20448;-79
2023/12/12 11:44:57;;;;;;;56.67;16.30;;;5.30;99.90;;;;;;6245020;23;20012;-79
2023/12/12 11:47:29;;;;;;;37.83;15.55;;;5.40;99.90;;;;;;6245038;23;20091;-79
2023/12/12 11:50:15;;;;;;;34.38;14.55;;;5.40;99.90;;;;;;6245084;23;20103;-79
2023/12/12 11:52:40;;;;;;;41.75;17.58;;;5.50;99.90;;;;;;6244730;23;20016;-80
2023/12/12 11:55:07;;;;;;;34.22;15.45;;;5.60;99.90;;;;;;6245102;23;20126;-81
2023/12/12 11:57:33;;;;;;;39.25;16.48;;;5.60;99.90;;;;;;6244933;23;20019;-81
2023/12/12 12:00:00;;;;;;;33.15;15.32;;;5.60;99.90;;;;;;6245149;23;20012;-81
2023/12/12 12:02:29;;;;;;;40.70;17.55;;;5.60;99.90;;;;;;6244584;23;20123;-80
2023/12/12 12:04:55;;;;;;;39.88;17.25;;;5.70;99.90;;;;;;6244963;23;20016;-80
2023/12/12 12:07:21;;;;;;;37.20;16.58;;;5.70;99.90;;;;;;6246477;22;20460;-79
2023/12/12 12:09:49;;;;;;;29.42;14.65;;;5.80;99.90;;;;;;6244840;23;20065;-79
2023/12/12 12:12:15;;;;;;;31.13;15.25;;;5.70;99.90;;;;;;6244684;23;20459;-80
2023/12/12 12:14:41;;;;;;;30.95;15.20;;;5.70;99.90;;;;;;6244587;23;20460;-80
2023/12/12 12:17:08;;;;;;;30.55;14.65;;;5.70;99.90;;;;;;6244519;23;20062;-80
2023/12/12 12:19:38;;;;;;;30.92;14.60;;;5.70;99.90;;;;;;6244837;23;20090;-79
2023/12/12 12:22:09;;;;;;;32.75;15.30;;;5.70;99.90;;;;;;6244792;23;20016;-79
2023/12/12 12:24:45;;;;;;;29.80;13.93;;;5.80;99.90;;;;;;6244803;23;20074;-79
2023/12/12 12:27:11;;;;;;;31.30;13.95;;;5.80;99.90;;;;;;6244613;23;20020;-79
2023/12/12 12:29:37;;;;;;;28.70;13.63;;;5.80;99.90;;;;;;6244446;23;20048;-79
2023/12/12 12:32:15;;;;;;;28.98;14.55;;;5.80;99.90;;;;;;6244734;23;20027;-78
2023/12/12 12:34:40;;;;;;;29.98;13.50;;;5.90;99.90;;;;;;6244501;23;20091;-79
2023/12/12 12:37:06;;;;;;;24.15;12.05;;;5.90;99.90;;;;;;6244275;23;20044;-79
2023/12/12 12:39:42;;;;;;;28.83;14.25;;;5.90;99.90;;;;;;6244706;23;20031;-78
2023/12/12 12:42:09;;;;;;;28.08;14.35;;;5.90;99.90;;;;;;6246106;22;20328;-78
2023/12/12 12:44:37;;;;;;;29.35;13.90;;;5.90;99.90;;;;;;6244549;23;20106;-77
2023/12/12 12:47:03;;;;;;;28.45;13.43;;;5.90;99.90;;;;;;6244657;23;20099;-79